Time;durP1;ratioP1;P1;durP2;ratioP2;P2;SDS_P1;SDS_P2;PMS_P1;PMS_P2;Temp;Humidity;BMP_temperature;BMP_pressure;BME280_temperature;BME280_humidity;BME280_pressure;Samples;Min_cycle;Max_cycle;Signal;HPM_P1;HPM_P2
2024/04/12 01:54:32;;;;;;;7.78;4.50;;;;;;;13.29;80.57;102582.84;6865636;20;19997;-82
2024/04/12 02:22:03;;;;;;;7.45;4.07;;;;;;;13.36;79.70;102571.69;6793337;21;20076;-83
2024/04/12 02:24:28;;;;;;;10.45;4.38;;;;;;;13.42;79.43;102569.56;6859290;21;19989;-83
2024/04/12 02:26:57;;;;;;;7.60;4.38;;;;;;;13.35;80.72;102564.66;6857603;21;20026;-83
2024/04/12 02:29:22;;;;;;;7.13;4.00;;;;;;;13.33;80.82;102561.25;6860707;21;19989;-82
2024/04/12 02:31:51;;;;;;;6.57;4.40;;;;;;;13.38;79.98;102563.59;6859748;21;20436;-84
2024/04/12 02:34:17;;;;;;;6.32;4.22;;;;;;;13.37;80.33;102559.22;6862177;21;20012;-85
2024/04/12 02:36:48;;;;;;;5.22;3.97;;;;;;;13.47;79.99;102565.63;6862129;21;20028;-84
2024/04/12 02:39:22;;;;;;;6.93;4.07;;;;;;;13.48;79.79;102556.69;6860908;20;20032;-85
2024/04/12 02:41:50;;;;;;;5.47;4.05;;;;;;;13.45;79.75;102554.25;6862245;20;20121;-83
2024/04/12 02:44:16;;;;;;;5.45;3.90;;;;;;;13.42;80.18;102562.44;6862604;21;20008;-82
2024/04/12 02:46:45;;;;;;;6.10;4.32;;;;;;;13.40;80.08;102562.53;6860803;21;20476;-83
2024/04/12 02:49:12;;;;;;;6.43;3.95;;;;;;;13.44;80.41;102547.22;6860328;21;19989;-83
2024/04/12 02:51:47;;;;;;;5.10;3.90;;;;;;;13.36;80.62;102544.25;6860843;21;20017;-83
2024/04/12 02:54:13;;;;;;;6.50;3.97;;;;;;;13.37;80.87;102552.09;6859425;21;20008;-82
2024/04/12 02:56:44;;;;;;;5.20;3.90;;;;;;;13.42;80.19;102551.78;6857514;21;20014;-82
2024/04/12 02:59:10;;;;;;;5.40;4.30;;;;;;;13.37;80.30;102551.25;6857534;20;19993;-82
2024/04/12 03:01:38;;;;;;;5.63;3.90;;;;;;;13.36;80.87;102549.56;6859385;21;19993;-83
2024/04/12 03:04:04;;;;;;;7.65;4.80;;;;;;;13.44;81.00;102547.22;6859044;21;20300;-81
2024/04/12 03:06:35;;;;;;;7.45;3.90;;;;;;;13.38;80.74;102544.97;6858174;21;19997;-78
2024/04/12 03:09:01;;;;;;;5.03;3.65;;;;;;;13.39;81.05;102544.00;6858940;21;20013;-80
2024/04/12 03:11:33;;;;;;;8.80;4.20;;;;;;;13.37;81.32;102545.94;6858255;20;19989;-81
2024/04/12 03:14:06;;;;;;;6.15;4.18;;;;;;;13.39;81.01;102557.31;6857584;21;20420;-81
2024/04/12 03:16:35;;;;;;;7.05;3.97;;;;;;;13.35;81.60;102548.72;6857513;21;19993;-82
2024/04/12 03:19:07;;;;;;;7.15;4.22;;;;;;;13.59;80.85;102550.63;6856544;21;19992;-81
2024/04/12 03:21:36;;;;;;;7.45;4.20;;;;;;;13.46;81.69;102550.63;6857264;21;20301;-81
2024/04/12 03:24:01;;;;;;;5.72;3.88;;;;;;;13.39;82.20;102554.66;6859055;20;19993;-81
2024/04/12 03:26:31;;;;;;;7.20;3.75;;;;;;;13.37;81.70;102557.44;6857150;21;20008;-82
2024/04/12 03:28:59;;;;;;;5.80;3.78;;;;;;;13.42;81.81;102559.78;6856937;21;20001;-82
2024/04/12 03:31:33;;;;;;;5.93;3.72;;;;;;;13.36;82.09;102568.19;6857161;21;19992;-83
2024/04/12 03:34:00;;;;;;;4.75;3.80;;;;;;;13.34;81.79;102570.06;6857019;21;20069;-82
2024/04/12 03:36:53;;;;;;;7.00;4.15;;;;;;;13.32;82.31;102564.03;6857352;21;19989;-82
2024/04/12 03:39:24;;;;;;;7.57;4.20;;;;;;;13.45;82.06;102572.88;6859225;21;20003;-83
2024/04/12 03:41:56;;;;;;;7.03;4.20;;;;;;;13.42;82.28;102561.59;6858916;21;19997;-81
2024/04/12 03:44:25;;;;;;;7.28;4.18;;;;;;;13.38;81.99;102566.25;6858356;21;20004;-81
2024/04/12 03:46:57;;;;;;;7.75;4.22;;;;;;;13.44;82.44;102576.50;6857747;21;20205;-80
2024/04/12 03:49:23;;;;;;;5.55;4.30;;;;;;;13.35;82.84;102570.00;6856713;20;19997;-81
2024/04/12 03:51:54;;;;;;;6.78;4.22;;;;;;;13.40;82.41;102562.53;6859345;20;20534;-83
2024/04/12 03:54:21;;;;;;;7.93;4.30;;;;;;;13.38;82.54;102564.44;6860742;21;19989;-83
2024/04/12 03:56:51;;;;;;;5.38;4.07;;;;;;;13.39;82.62;102571.50;6858358;21;20087;-81
2024/04/12 03:59:17;;;;;;;7.72;4.70;;;;;;;13.40;83.36;102564.34;6858444;21;20028;-81
2024/04/12 04:01:46;;;;;;;14.13;4.50;;;;;;;13.35;83.57;102564.66;6860689;20;19996;-82
2024/04/12 04:04:19;;;;;;;11.82;5.20;;;;;;;13.32;83.75;102566.69;6859399;21;20491;-84
2024/04/12 04:06:46;;;;;;;8.30;5.40;;;;;;;13.34;84.15;102562.09;6861157;20;19997;-79
2024/04/12 04:09:14;;;;;;;9.07;5.60;;;;;;;13.38;84.45;102563.59;6859420;21;19989;-83
2024/04/12 04:11:42;;;;;;;6.63;4.93;;;;;;;13.36;84.59;102562.84;6861872;21;19993;-81
2024/04/12 04:14:13;;;;;;;8.85;5.63;;;;;;;13.34;85.01;102562.09;6860970;21;20685;-80
2024/04/12 04:16:39;;;;;;;8.18;5.97;;;;;;;13.42;84.31;102549.13;6858288;21;20284;-83
2024/04/12 04:19:12;;;;;;;10.45;5.90;;;;;;;13.40;84.71;102553.72;6856920;21;20001;-82
2024/04/12 04:21:41;;;;;;;9.43;6.40;;;;;;;13.39;84.74;102554.66;6856014;21;19989;-81
2024/04/12 04:24:13;;;;;;;8.60;6.03;;;;;;;13.34;85.35;102549.66;6855470;21;19993;-81
2024/04/12 04:26:40;;;;;;;14.35;6.80;;;;;;;13.37;85.23;102556.56;6856501;20;20001;-82
2024/04/12 04:29:09;;;;;;;10.18;6.72;;;;;;;13.47;84.65;102557.63;6858171;20;20069;-83
2024/04/12 04:31:44;;;;;;;11.05;6.20;;;;;;;13.41;85.25;102555.41;6855954;21;19993;-80
2024/04/12 04:34:13;;;;;;;13.05;6.55;;;;;;;13.40;85.45;102553.72;6857315;21;20004;-82
2024/04/12 04:36:41;;;;;;;11.10;6.50;;;;;;;13.40;85.32;102556.38;6858788;21;20000;-80
2024/04/12 04:39:14;;;;;;;11.23;6.35;;;;;;;13.41;85.32;102558.06;6858898;20;19997;-82
2024/04/12 04:41:44;;;;;;;12.68;6.43;;;;;;;13.44;84.88;102565.84;6859703;21;19989;-83
2024/04/12 04:44:14;;;;;;;14.48;6.97;;;;;;;13.45;85.12;102559.56;6859107;21;20012;-81
2024/04/12 04:46:44;;;;;;;12.10;7.38;;;;;;;13.41;85.58;102568.72;6859831;21;20067;-82
2024/04/12 04:49:15;;;;;;;13.93;6.57;;;;;;;13.48;85.58;102574.44;6858474;20;20041;-83
2024/04/12 04:51:45;;;;;;;10.43;7.05;;;;;;;13.47;85.35;102567.44;6860218;21;19993;-82
2024/04/12 04:54:13;;;;;;;15.57;7.55;;;;;;;13.49;85.51;102573.50;6860198;21;19989;-83
2024/04/12 04:56:39;;;;;;;14.18;8.13;;;;;;;13.42;85.78;102567.75;6860268;21;19993;-83
2024/04/12 04:59:08;;;;;;;15.77;7.95;;;;;;;13.45;85.94;102564.03;6859998;21;20069;-85
2024/04/12 05:01:34;;;;;;;11.82;7.35;;;;;;;13.41;86.80;102566.06;6858501;21;20350;-83
2024/04/12 05:04:02;;;;;;;11.60;7.57;;;;;;;13.44;86.60;102563.19;6860233;20;19989;-83
2024/04/12 05:06:29;;;;;;;10.73;7.57;;;;;;;13.40;86.84;102573.19;6859786;21;19996;-83
2024/04/12 05:09:03;;;;;;;11.45;8.27;;;;;;;13.52;86.52;102566.16;6858629;21;19992;-81
2024/04/12 05:11:30;;;;;;;14.07;8.35;;;;;;;13.55;86.68;102565.94;6858927;21;20043;-82
2024/04/12 05:14:05;;;;;;;11.25;7.80;;;;;;;13.47;86.46;102567.44;6858619;21;19989;-81
2024/04/12 05:16:32;;;;;;;10.98;8.10;;;;;;;13.50;86.96;102572.56;6857286;20;19993;-80
2024/04/12 05:19:08;;;;;;;12.27;8.68;;;;;;;13.44;86.98;102573.84;6857742;21;20033;-82
2024/04/12 05:21:35;;;;;;;10.10;7.40;;;;;;;13.45;86.59;102570.22;6858928;21;20391;-81
2024/04/12 05:24:09;;;;;;;12.20;7.90;;;;;;;13.50;86.27;102573.41;6857591;21;19989;-81
2024/04/12 05:26:36;;;;;;;9.82;7.50;;;;;;;13.51;86.65;102569.78;6858487;21;19997;-81
2024/04/12 05:29:06;;;;;;;13.50;7.40;;;;;;;13.54;86.25;102564.25;6852683;20;20007;-82
2024/04/12 05:31:37;;;;;;;8.73;7.07;;;;;;;13.55;86.23;102565.94;6857318;21;19997;-80
2024/04/12 05:34:07;;;;;;;11.37;6.83;;;;;;;13.49;86.69;102574.38;6855391;20;19989;-80
2024/04/12 05:36:34;;;;;;;8.68;6.93;;;;;;;13.51;86.08;102561.78;6859655;21;19993;-81
2024/04/12 05:39:11;;;;;;;11.75;7.38;;;;;;;13.48;86.76;102559.34;6859882;21;20395;-82
2024/04/12 05:41:44;;;;;;;12.32;7.03;;;;;;;13.50;86.69;102557.44;6860844;21;19997;-82
2024/04/12 05:44:26;;;;;;;11.43;7.35;;;;;;;13.57;86.32;102566.72;6858345;21;19993;-80
2024/04/12 05:46:53;;;;;;;9.90;7.43;;;;;;;13.50;87.05;102568.09;6859686;21;19997;-81
2024/04/12 05:49:22;;;;;;;11.25;7.38;;;;;;;13.48;87.53;102572.63;6858428;21;19993;-80
2024/04/12 05:51:49;;;;;;;12.30;7.60;;;;;;;13.53;87.44;102569.69;6858064;21;19993;-80
2024/04/12 05:54:20;;;;;;;13.00;7.57;;;;;;;13.54;86.89;102576.72;6855488;21;20097;-81
2024/04/12 05:56:47;;;;;;;9.93;7.85;;;;;;;13.55;87.44;102581.91;6859306;21;20025;-80
2024/04/12 05:59:16;;;;;;;10.70;8.00;;;;;;;13.56;87.41;102572.97;6859377;21;20373;-83
2024/04/12 06:01:43;;;;;;;12.50;6.97;;;;;;;13.66;86.76;102578.50;6855972;21;19993;-81
2024/04/12 06:04:20;;;;;;;15.18;7.13;;;;;;;13.60;86.52;102578.94;6859329;21;20004;-81
2024/04/12 06:06:47;;;;;;;13.82;7.10;;;;;;;13.63;86.55;102576.06;6861564;21;20016;-78
2024/04/12 06:09:19;;;;;;;12.15;7.03;;;;;;;13.62;86.87;102574.38;6857170;21;19993;-80
2024/04/12 06:11:54;;;;;;;9.50;7.32;;;;;;;13.61;87.51;102576.16;6857978;20;19993;-79
2024/04/12 06:14:24;;;;;;;10.52;8.00;;;;;;;13.58;87.58;102576.38;6857575;21;20341;-81
2024/04/12 06:16:51;;;;;;;13.75;7.60;;;;;;;13.59;87.30;102571.91;6857696;21;20003;-81
2024/04/12 06:19:20;;;;;;;10.77;7.18;;;;;;;13.61;87.13;102570.84;6857972;21;19993;-80
2024/04/12 06:21:46;;;;;;;11.00;7.88;;;;;;;13.54;87.21;102566.06;6857599;21;20267;-81
2024/04/12 06:24:16;;;;;;;10.98;7.63;;;;;;;13.61;87.76;102573.50;6858395;20;20081;-81
2024/04/12 06:26:42;;;;;;;10.90;7.20;;;;;;;13.60;87.58;102566.47;6859025;21;20034;-81
2024/04/12 06:29:16;;;;;;;10.88;7.78;;;;;;;13.68;86.74;102567.75;6861628;21;20046;-81
2024/04/12 06:31:44;;;;;;;11.75;7.55;;;;;;;13.74;86.91;102556.69;6868343;20;19993;-81
2024/04/12 06:34:17;;;;;;;11.73;8.00;;;;;;;13.83;86.13;102561.34;6868278;21;20139;-79
2024/04/12 06:36:45;;;;;;;;;;;;;;;13.87;86.70;102565.50;6860319;21;19989;-79
2024/04/12 06:39:14;;;;;;;11.70;8.32;;;;;;;13.70;86.95;102568.50;6860096;21;19925;-80
2024/04/12 06:41:45;;;;;;;14.45;8.45;;;;;;;13.71;86.75;102570.22;6859654;21;20005;-79
2024/04/12 06:44:19;;;;;;;11.32;8.55;;;;;;;13.96;85.12;102567.53;6860099;21;19989;-81
2024/04/12 06:46:51;;;;;;;12.15;8.38;;;;;;;13.87;86.55;102566.34;6859920;21;20071;-79
2024/04/12 06:49:19;;;;;;;11.95;7.75;;;;;;;13.91;85.88;102567.84;6858880;21;20004;-79
2024/04/12 06:52:09;;;;;;;14.32;8.30;;;;;;;13.89;86.42;102572.44;6858257;21;20077;-81
2024/04/12 06:54:35;;;;;;;10.55;8.45;;;;;;;13.85;86.36;102567.44;6858211;20;20112;-80
2024/04/12 06:57:06;;;;;;;14.73;8.40;;;;;;;14.01;85.50;102564.53;6857401;21;20000;-81
2024/04/12 06:59:35;;;;;;;12.07;9.45;;;;;;;13.95;86.36;102573.81;6857600;20;20233;-81
2024/04/12 07:02:06;;;;;;;15.52;8.13;;;;;;;13.94;86.49;102569.47;6858265;21;20511;-79
2024/04/12 07:04:32;;;;;;;11.05;7.78;;;;;;;13.96;86.42;102578.16;6857039;21;20292;-79
2024/04/12 07:07:00;;;;;;;12.43;8.18;;;;;;;13.94;86.59;102581.91;6856243;20;19993;-80
2024/04/12 07:09:26;;;;;;;12.32;8.32;;;;;;;14.03;86.51;102573.28;6858129;20;19997;-80
2024/04/12 07:11:54;;;;;;;12.38;8.85;;;;;;;14.01;86.54;102568.03;6857825;21;20103;-80
2024/04/12 07:14:22;;;;;;;13.00;8.18;;;;;;;13.97;86.29;102561.22;6858496;21;19997;-81
2024/04/12 07:16:53;;;;;;;13.05;7.65;;;;;;;14.03;86.18;102571.47;6857983;20;19989;-81
2024/04/12 07:19:23;;;;;;;13.57;8.05;;;;;;;14.13;85.73;102566.34;6857685;20;20067;-80
2024/04/12 07:21:54;;;;;;;15.43;9.05;;;;;;;14.15;85.39;102575.03;6858563;21;20335;-81
2024/04/12 07:24:22;;;;;;;12.77;8.85;;;;;;;14.13;84.65;102576.97;6858102;21;20431;-81
2024/04/12 07:26:50;;;;;;;12.85;7.88;;;;;;;14.04;85.33;102575.81;6856824;21;20024;-82
2024/04/12 07:29:21;;;;;;;15.73;8.93;;;;;;;14.11;85.04;102579.75;6856527;21;20019;-80
2024/04/12 07:31:53;;;;;;;13.07;9.45;;;;;;;14.23;84.71;102575.34;6857165;21;20330;-81
2024/04/12 07:34:19;;;;;;;11.15;7.47;;;;;;;14.21;84.11;102576.44;6858158;21;20021;-81
2024/04/12 07:36:47;;;;;;;10.68;5.72;;;;;;;14.30;83.77;102579.28;6857168;21;20042;-83
2024/04/12 07:39:15;;;;;;;9.32;5.90;;;;;;;14.46;83.87;102573.69;6856394;21;19997;-80
2024/04/12 07:41:48;;;;;;;13.23;7.40;;;;;;;14.66;82.28;102575.78;6856196;21;20065;-82
2024/04/12 07:44:14;;;;;;;10.23;7.20;;;;;;;14.77;81.97;102574.97;6857642;21;19989;-80
2024/04/12 07:46:49;;;;;;;16.23;10.50;;;;;;;14.92;80.94;102575.69;6856743;20;20011;-81
2024/04/12 07:49:18;;;;;;;11.10;6.72;;;;;;;15.01;80.46;102575.00;6857607;21;20345;-82
2024/04/12 07:51:47;;;;;;;7.47;6.47;;;;;;;15.19;80.03;102582.56;6858211;21;20004;-81
2024/04/12 07:54:13;;;;;;;7.60;5.47;;;;;;;15.38;79.38;102586.38;6860875;21;19997;-81
2024/04/12 07:56:43;;;;;;;11.05;6.70;;;;;;;15.33;78.56;102582.34;6859064;21;19993;-82
2024/04/12 07:59:17;;;;;;;6.55;4.90;;;;;;;15.56;77.85;102568.09;6860432;20;19988;-83
2024/04/12 08:01:46;;;;;;;8.02;5.15;;;;;;;15.64;77.74;102568.38;6863925;21;20061;-83
2024/04/12 08:04:23;;;;;;;8.35;5.38;;;;;;;15.85;77.22;102564.97;6864065;21;20078;-83
2024/04/12 08:07:06;;;;;;;7.43;6.00;;;;;;;15.76;77.44;102560.38;6861513;21;19993;-83
2024/04/12 08:09:34;;;;;;;8.48;5.20;;;;;;;15.83;76.98;102572.28;6862134;20;19992;-84
2024/04/12 08:12:13;;;;;;;7.00;5.00;;;;;;;15.95;76.94;102570.47;6861651;21;20335;-84
2024/04/12 08:14:39;;;;;;;8.40;5.75;;;;;;;15.82;77.07;102581.25;6861504;21;19988;-84
2024/04/12 08:17:14;;;;;;;6.82;4.93;;;;;;;15.75;77.49;102585.38;6861501;21;20000;-80
2024/04/12 08:19:45;;;;;;;7.97;5.50;;;;;;;15.75;78.18;102580.03;6860901;21;19981;-84
2024/04/12 08:22:18;;;;;;;10.00;5.30;;;;;;;15.96;76.93;102583.69;6860778;20;19989;-83
2024/04/12 08:24:49;;;;;;;8.90;6.25;;;;;;;15.99;77.75;102594.13;6858366;20;19993;-81
2024/04/12 08:27:18;;;;;;;8.65;5.95;;;;;;;15.99;76.88;102594.13;6856324;20;20317;-82
2024/04/12 08:29:45;;;;;;;10.73;6.13;;;;;;;16.09;76.15;102595.09;6857081;21;19993;-82
2024/04/12 08:32:19;;;;;;;12.57;6.10;;;;;;;15.71;78.25;102592.75;6857639;21;20028;-82
2024/04/12 08:34:45;;;;;;;13.48;6.78;;;;;;;15.69;78.27;102591.19;6858359;21;20004;-82
2024/04/12 08:37:18;;;;;;;10.38;6.38;;;;;;;15.82;78.43;102594.63;6857646;21;20001;-82
2024/04/12 08:39:45;;;;;;;12.98;6.40;;;;;;;16.07;77.42;102589.03;6857879;21;20382;-82
2024/04/12 08:42:14;;;;;;;11.30;7.38;;;;;;;16.32;77.25;102584.41;6858755;21;20068;-81
2024/04/12 08:44:40;;;;;;;10.35;6.00;;;;;;;16.43;76.12;102585.25;6858549;20;19994;-82
2024/04/12 08:47:30;;;;;;;10.27;6.20;;;;;;;16.52;75.29;102590.78;6858512;20;20001;-82
2024/04/12 08:50:03;;;;;;;11.57;6.60;;;;;;;16.88;74.15;102584.28;6858313;21;20016;-80
2024/04/12 08:52:43;;;;;;;10.57;6.50;;;;;;;16.90;74.60;102580.50;6857669;21;20023;-81
2024/04/12 08:55:13;;;;;;;10.32;6.53;;;;;;;16.83;73.70;102573.97;6857094;21;20007;-82
2024/04/12 08:57:42;;;;;;;8.25;6.70;;;;;;;16.92;74.01;102575.00;6857054;21;20291;-81
2024/04/12 09:00:15;;;;;;;11.20;6.65;;;;;;;16.79;74.32;102582.38;6856464;21;19997;-80
2024/04/12 09:02:48;;;;;;;10.68;6.20;;;;;;;16.89;74.06;102572.63;6858116;21;20008;-82
2024/04/12 09:05:14;;;;;;;9.68;6.55;;;;;;;17.08;73.64;102564.72;6858190;21;20024;-81
2024/04/12 09:07:50;;;;;;;10.32;7.18;;;;;;;17.06;73.41;102564.03;6860709;21;19992;-82
2024/04/12 09:10:16;;;;;;;12.90;7.03;;;;;;;17.27;72.48;102560.50;6864278;21;19993;-83
2024/04/12 09:12:46;;;;;;;8.52;6.15;;;;;;;17.45;72.12;102564.28;6860301;21;20009;-82
2024/04/12 09:15:23;;;;;;;9.02;7.28;;;;;;;17.46;70.96;102560.63;6858143;21;19992;-81
2024/04/12 09:17:59;;;;;;;10.35;6.53;;;;;;;17.52;71.27;102567.28;6859577;20;20033;-80
2024/04/12 09:20:30;;;;;;;10.20;7.18;;;;;;;17.56;71.15;102568.72;6857988;21;20005;-77
2024/04/12 09:23:13;;;;;;;10.02;7.50;;;;;;;17.54;71.33;102562.63;6856370;21;20100;-79
2024/04/12 09:25:41;;;;;;;9.30;6.20;;;;;;;17.74;69.37;102563.63;6858259;20;20003;-80
2024/04/12 09:28:13;;;;;;;8.77;5.93;;;;;;;17.84;69.14;102569.88;6857525;21;20124;-80
2024/04/12 09:33:28;;;;;;;7.65;5.97;;;;;;;17.94;69.55;102579.63;6861398;21;20008;-81
2024/04/12 09:36:06;;;;;;;9.70;5.60;;;;;;;17.84;69.20;102577.91;6856985;21;19989;-80
2024/04/12 09:38:39;;;;;;;10.27;6.07;;;;;;;17.82;68.71;102571.84;6857441;21;19996;-81
2024/04/12 09:41:28;;;;;;;10.88;6.82;;;;;;;17.98;69.23;102574.03;6858122;21;20001;-80
2024/04/12 09:43:59;;;;;;;10.82;6.20;;;;;;;18.07;68.96;102571.38;6857465;21;20004;-81
2024/04/12 09:46:46;;;;;;;9.13;5.95;;;;;;;18.04;68.92;102577.03;6858041;21;20001;-81
2024/04/12 10:39:33;;;;;;;10.20;4.50;;;;;;;18.98;64.97;102569.47;6861116;21;20066;-79
2024/04/12 10:42:05;;;;;;;7.97;4.18;;;;;;;19.02;64.62;102568.19;6856666;21;19997;-81
2024/04/12 10:44:36;;;;;;;6.93;4.22;;;;;;;18.84;65.29;102565.38;6858168;21;19993;-80
2024/04/12 10:47:04;;;;;;;10.35;4.00;;;;;;;19.19;64.37;102566.59;6855600;21;19989;-80
2024/04/12 10:49:33;;;;;;;5.85;3.90;;;;;;;19.14;63.57;102567.03;6856830;20;20069;-80
2024/04/12 10:51:58;;;;;;;7.18;3.90;;;;;;;19.11;64.08;102561.97;6857241;20;20303;-82
2024/04/12 10:54:29;;;;;;;7.72;3.78;;;;;;;19.07;64.18;102565.91;6856147;21;20001;-80
2024/04/12 10:56:56;;;;;;;6.18;3.60;;;;;;;19.11;64.34;102567.34;6855528;21;20072;-78
2024/04/12 10:59:30;;;;;;;9.25;3.60;;;;;;;18.93;63.91;102561.00;6855798;21;20025;-79
2024/04/12 11:01:59;;;;;;;11.20;4.28;;;;;;;18.99;64.71;102549.69;6856114;21;19995;-82
2024/04/12 11:04:34;;;;;;;8.13;3.83;;;;;;;19.02;64.23;102552.09;6855230;21;20059;-80
2024/04/12 11:07:00;;;;;;;10.18;3.70;;;;;;;19.18;64.15;102548.81;6855528;21;20020;-80
2024/04/12 11:09:37;;;;;;;8.20;3.63;;;;;;;19.08;64.24;102546.13;6856630;20;19996;-79
2024/04/12 11:12:09;;;;;;;8.10;3.80;;;;;;;19.01;65.10;102550.38;6855654;21;20005;-80
2024/04/12 11:14:38;;;;;;;8.15;3.60;;;;;;;18.94;64.34;102538.53;6855834;21;19997;-80
2024/04/12 11:31:14;;;;;;;10.85;4.57;;;;;;;18.74;65.49;102523.41;6860027;21;20008;-82
2024/04/12 11:33:52;;;;;;;9.13;4.00;;;;;;;18.60;65.84;102525.50;6856047;21;20000;-80
2024/04/12 11:36:21;;;;;;;7.22;4.10;;;;;;;18.61;67.23;102521.81;6855543;21;20008;-81
2024/04/12 11:38:53;;;;;;;7.60;3.92;;;;;;;18.76;66.76;102524.13;6855554;21;19993;-82
2024/04/12 11:41:23;;;;;;;9.13;3.90;;;;;;;18.96;66.35;102515.06;6856318;21;20001;-82
2024/04/12 11:43:54;;;;;;;6.15;4.05;;;;;;;19.11;66.52;102519.03;6856104;20;20029;-81
2024/04/12 11:46:23;;;;;;;8.60;3.83;;;;;;;19.15;65.46;102515.06;6857399;21;20292;-82
2024/04/12 11:48:56;;;;;;;5.93;3.70;;;;;;;19.06;64.90;102505.16;6855774;21;20003;-81
2024/04/12 11:51:22;;;;;;;;;;;;;;;19.31;64.56;102502.84;6855911;20;20035;-82
2024/04/12 11:53:51;;;;;;;6.25;3.35;;;;;;;19.63;63.27;102502.50;6856097;21;20318;-82
2024/04/12 11:56:17;;;;;;;4.63;2.95;;;;;;;19.75;63.53;102500.47;6855925;21;20012;-82
2024/04/12 11:58:46;;;;;;;5.38;3.13;;;;;;;19.85;62.99;102498.56;6855819;21;20052;-81
2024/04/12 12:01:13;;;;;;;7.25;3.50;;;;;;;20.15;60.15;102495.56;6855193;21;19993;-82
2024/04/12 12:03:41;;;;;;;3.30;2.55;;;;;;;19.99;60.12;102492.69;6861943;21;19993;-82
2024/04/12 12:06:09;;;;;;;4.60;2.33;;;;;;;19.90;60.12;102499.81;6863104;20;20000;-82
2024/04/12 12:08:41;;;;;;;4.50;2.75;;;;;;;19.91;60.38;102490.78;6856599;21;19993;-80
2024/04/12 12:11:08;;;;;;;4.18;2.55;;;;;;;19.99;59.60;102486.47;6857016;21;19994;-82
2024/04/12 12:13:37;;;;;;;5.32;2.85;;;;;;;20.24;59.88;102491.13;6857247;21;20004;-81
2024/04/12 12:16:06;;;;;;;5.53;2.80;;;;;;;20.35;59.27;102471.22;6857573;21;20021;-83
2024/04/12 12:18:36;;;;;;;7.20;3.25;;;;;;;20.83;57.59;102473.53;6857005;21;19993;-79
2024/04/12 12:21:02;;;;;;;7.22;3.28;;;;;;;20.93;56.61;102468.06;6856581;21;20090;-82
2024/04/12 12:23:33;;;;;;;5.38;2.65;;;;;;;20.73;57.06;102470.09;6856042;21;19993;-80
2024/04/12 12:26:02;;;;;;;4.95;2.13;;;;;;;20.65;56.69;102472.72;6856220;21;19989;-82
2024/04/12 12:28:32;;;;;;;6.38;2.65;;;;;;;20.66;57.06;102477.94;6855142;21;20304;-81
2024/04/12 12:30:58;;;;;;;10.48;2.88;;;;;;;20.70;56.16;102476.63;6855449;21;20007;-82
2024/04/12 12:33:33;;;;;;;7.57;2.60;;;;;;;20.60;56.73;102475.03;6857132;21;19997;-81
2024/04/12 12:35:59;;;;;;;5.65;2.92;;;;;;;20.47;57.62;102471.84;6857254;21;20008;-80
2024/04/12 12:38:27;;;;;;;5.03;3.15;;;;;;;20.63;57.24;102455.91;6857968;21;20427;-81
2024/04/12 12:40:55;;;;;;;9.82;3.45;;;;;;;20.46;57.61;102454.88;6860643;20;20008;-81
2024/04/12 12:43:28;;;;;;;8.93;3.47;;;;;;;20.66;56.97;102469.03;6858610;20;20001;-80
2024/04/12 12:45:55;;;;;;;6.35;3.00;;;;;;;20.79;57.19;102460.56;6872780;20;20072;-84
2024/04/12 12:48:27;;;;;;;6.25;3.22;;;;;;;21.29;55.37;102449.09;6865591;21;20424;-81
2024/04/12 12:50:53;;;;;;;6.45;3.30;;;;;;;21.47;55.54;102452.59;6857219;20;19993;-80
2024/04/12 12:53:23;;;;;;;9.25;3.05;;;;;;;21.33;55.58;102450.50;6849283;21;20426;-78
2024/04/12 12:55:51;;;;;;;7.75;3.95;;;;;;;21.17;55.98;102451.25;6850812;21;19993;-79
2024/04/12 12:58:25;;;;;;;5.03;3.33;;;;;;;21.36;54.94;102455.56;6851950;21;20112;-81
2024/04/12 13:00:51;;;;;;;5.50;2.83;;;;;;;21.47;54.06;102446.34;6850989;21;20024;-79
2024/04/12 13:03:25;;;;;;;6.63;3.10;;;;;;;21.54;54.88;102434.78;6851642;21;19996;-81
2024/04/12 13:05:52;;;;;;;6.30;2.83;;;;;;;21.77;54.50;102437.72;6850632;20;20004;-80
2024/04/12 13:08:20;;;;;;;6.90;3.40;;;;;;;21.18;51.88;102428.69;6852497;21;19993;-81
2024/04/12 13:10:49;;;;;;;7.38;3.63;;;;;;;21.16;52.97;102428.84;6852909;21;19993;-81
2024/04/12 13:13:21;;;;;;;5.72;3.30;;;;;;;21.47;53.02;102422.94;6861594;21;20043;-81
2024/04/12 13:15:54;;;;;;;6.93;3.33;;;;;;;21.69;50.89;102435.00;6871304;20;20058;-82
2024/04/12 13:18:23;;;;;;;5.30;3.97;;;;;;;21.74;52.37;102424.56;6873439;21;20004;-81
2024/04/12 13:20:50;;;;;;;6.05;3.40;;;;;;;22.04;51.27;102424.97;6874338;21;19989;-82
2024/04/12 13:23:19;;;;;;;7.30;3.75;;;;;;;21.81;51.19;102428.31;6864073;20;19993;-79
2024/04/12 13:25:45;;;;;;;4.38;3.22;;;;;;;21.70;50.73;102415.16;6856129;20;19992;-81
2024/04/12 13:28:14;;;;;;;10.43;3.30;;;;;;;21.77;50.46;102420.72;6855503;21;20012;-79
2024/04/12 13:30:40;;;;;;;7.72;4.30;;;;;;;21.93;49.66;102416.22;6856208;21;20046;-81
2024/04/12 13:33:14;;;;;;;6.55;3.60;;;;;;;21.58;50.16;102416.44;6855514;21;20007;-79
2024/04/12 13:35:40;;;;;;;7.28;3.78;;;;;;;21.52;50.95;102409.00;6855837;20;20009;-82
2024/04/12 13:38:12;;;;;;;6.30;3.58;;;;;;;21.72;51.43;102412.28;6856148;20;20089;-82
2024/04/12 13:40:40;;;;;;;5.03;3.42;;;;;;;21.64;51.72;102415.78;6855256;21;20400;-81
2024/04/12 13:43:13;;;;;;;7.47;3.38;;;;;;;21.65;52.12;102412.94;6856253;21;20069;-82
2024/04/12 13:51:18;;;;;;;7.35;3.47;;;;;;;21.90;50.72;102386.88;6861877;20;20068;-82
2024/04/12 13:53:50;;;;;;;5.15;3.33;;;;;;;21.99;51.66;102387.72;6858295;21;20012;-81
2024/04/12 13:56:28;;;;;;;5.17;3.23;;;;;;;22.34;50.27;102385.78;6859769;21;20005;-79
2024/04/12 13:58:56;;;;;;;8.80;3.70;;;;;;;22.25;50.21;102384.09;6858164;21;19997;-78
2024/04/12 14:01:25;;;;;;;5.47;3.50;;;;;;;22.25;49.15;102376.00;6858674;20;20046;-81
2024/04/12 14:03:57;;;;;;;5.35;3.50;;;;;;;22.45;48.70;102378.16;6859140;21;20016;-81
2024/04/12 14:06:26;;;;;;;7.53;3.30;;;;;;;22.23;49.50;102370.75;6857736;21;19993;-81
2024/04/12 14:08:52;;;;;;;5.93;3.63;;;;;;;22.01;48.95;102374.94;6858083;21;19996;-81
2024/04/12 14:11:20;;;;;;;7.60;3.70;;;;;;;22.00;49.12;102370.53;6858126;21;20069;-82
2024/04/12 14:13:46;;;;;;;9.43;3.75;;;;;;;21.98;48.87;102369.88;6858303;20;19997;-78
2024/04/12 14:16:16;;;;;;;7.30;3.90;;;;;;;21.96;50.44;102374.56;6859863;21;19996;-78
2024/04/12 14:18:43;;;;;;;5.10;3.67;;;;;;;21.96;50.26;102371.88;6863924;21;20011;-80
2024/04/12 14:21:15;;;;;;;6.75;3.45;;;;;;;21.80;49.41;102377.25;6866165;21;20049;-81
2024/04/12 14:23:42;;;;;;;8.18;3.80;;;;;;;21.63;50.25;102376.38;6866322;21;20008;-81
2024/04/12 14:26:10;;;;;;;6.10;3.70;;;;;;;21.48;50.77;102373.47;6866506;21;20012;-80
2024/04/12 14:28:39;;;;;;;5.50;3.58;;;;;;;21.56;51.24;102368.09;6867947;21;19993;-80
2024/04/12 14:31:07;;;;;;;5.78;3.97;;;;;;;21.45;52.41;102363.00;6862748;21;19997;-80
2024/04/12 14:33:33;;;;;;;8.77;3.80;;;;;;;21.53;50.93;102370.28;6856879;21;19993;-81
2024/04/12 14:36:02;;;;;;;9.85;4.32;;;;;;;21.43;51.61;102371.28;6857157;21;20422;-80
2024/04/12 14:38:31;;;;;;;7.13;3.83;;;;;;;21.55;51.14;102369.09;6855596;21;20375;-81
2024/04/12 14:41:07;;;;;;;8.75;3.95;;;;;;;21.44;51.79;102359.47;6855981;21;19993;-81
2024/04/12 14:43:33;;;;;;;6.32;3.85;;;;;;;21.58;51.58;102358.00;6854795;21;19989;-80
2024/04/12 14:46:05;;;;;;;9.68;3.97;;;;;;;21.61;51.70;102354.13;6855597;21;20061;-80
2024/04/12 14:48:32;;;;;;;7.40;3.88;;;;;;;21.66;51.35;102343.72;6855787;21;20336;-80
2024/04/12 14:51:00;;;;;;;6.60;3.63;;;;;;;21.80;51.03;102344.91;6855721;20;20283;-79
2024/04/12 14:53:26;;;;;;;8.93;3.90;;;;;;;21.85;51.40;102335.31;6856120;21;20008;-79
2024/04/12 14:55:57;;;;;;;8.90;4.93;;;;;;;21.73;51.39;102339.34;6854925;21;20331;-80
2024/04/12 14:58:23;;;;;;;6.78;4.40;;;;;;;21.59;51.49;102342.69;6854463;20;20018;-80
2024/04/12 15:00:51;;;;;;;9.10;4.30;;;;;;;21.57;51.52;102337.47;6857235;21;19997;-82
2024/04/12 15:49:50;;;;;;;9.50;4.85;;;;;;;20.90;53.99;102309.59;6861828;21;19997;-82
2024/04/12 15:52:21;;;;;;;10.75;5.38;;;;;;;20.86;54.51;102308.22;6861019;21;19993;-82